Time;durP1;ratioP1;P1;durP2;ratioP2;P2;SDS_P1;SDS_P2;PMS_P1;PMS_P2;Temp;Humidity;BMP_temperature;BMP_pressure;BME280_temperature;BME280_humidity;BME280_pressure;Samples;Min_cycle;Max_cycle;Signal;HPM_P1;HPM_P2
2023/04/10 00:00:52;;;;;;;42.73;32.70;;;;;;;5.60;100.00;102489.16;5014276;28;20460;-49
2023/04/10 00:03:19;;;;;;;49.60;32.80;;;;;;;5.61;100.00;102490.00;5014116;28;20425;-49
2023/04/10 00:05:47;;;;;;;38.83;31.10;;;;;;;5.66;100.00;102487.81;5014280;28;20835;-52
2023/04/10 00:08:16;;;;;;;46.30;33.57;;;;;;;5.67;100.00;102487.72;5013470;28;20483;-47
2023/04/10 00:10:44;;;;;;;41.93;32.33;;;;;;;5.66;100.00;102480.72;5014029;28;20453;-47
2023/04/10 00:13:11;;;;;;;52.03;32.50;;;;;;;5.70;100.00;102481.34;5013746;28;20444;-46
2023/04/10 00:15:39;;;;;;;46.30;33.40;;;;;;;5.69;100.00;102488.41;5024028;23;20413;-45
2023/04/10 00:18:07;;;;;;;45.37;33.20;;;;;;;5.67;100.00;102490.38;5036792;28;20424;-47
2023/04/10 00:20:35;;;;;;;54.93;33.47;;;;;;;5.69;100.00;102484.94;5038434;28;20804;-52
2023/04/10 00:23:03;;;;;;;45.07;31.40;;;;;;;5.69;100.00;102484.94;5039109;28;20437;-45
2023/04/10 00:25:32;;;;;;;43.27;35.77;;;;;;;5.70;100.00;102487.47;5039062;28;20931;-52
2023/04/10 00:27:59;;;;;;;50.40;36.00;;;;;;;5.72;100.00;102487.34;5038469;28;20477;-44
2023/04/10 00:30:27;;;;;;;43.97;33.97;;;;;;;5.71;100.00;102489.13;5039269;28;20443;-47
2023/04/10 00:32:55;;;;;;;41.70;33.40;;;;;;;5.72;100.00;102477.59;5038392;28;20432;-50
2023/04/10 00:35:23;;;;;;;41.43;34.30;;;;;;;5.73;100.00;102492.53;5038203;28;20440;-50
2023/04/10 00:37:51;;;;;;;41.97;33.20;;;;;;;5.74;100.00;102488.88;5038452;28;20515;-51
2023/04/10 00:40:18;;;;;;;50.07;33.00;;;;;;;5.75;100.00;102485.28;5037689;28;20484;-52
2023/04/10 00:42:47;;;;;;;46.50;33.60;;;;;;;5.80;100.00;102477.81;5037257;28;20489;-47
2023/04/10 00:45:15;;;;;;;44.87;33.37;;;;;;;5.81;100.00;102482.16;5038904;28;20464;-47
2023/04/10 00:47:43;;;;;;;39.23;33.40;;;;;;;5.78;100.00;102468.31;5037975;28;20451;-48
2023/04/10 00:50:11;;;;;;;39.53;30.70;;;;;;;5.79;100.00;102476.16;5037380;28;20452;-49
2023/04/10 00:52:39;;;;;;;43.20;34.60;;;;;;;5.80;100.00;102472.50;5038032;28;20433;-49
2023/04/10 00:55:08;;;;;;;42.30;32.23;;;;;;;5.82;100.00;102475.06;5038086;28;20433;-48
2023/04/10 00:57:35;;;;;;;38.30;31.87;;;;;;;5.83;100.00;102472.25;5038116;28;20456;-48
2023/04/10 01:00:05;;;;;;;43.07;33.10;;;;;;;5.85;100.00;102472.16;5038310;28;20464;-50
2023/04/10 01:02:33;;;;;;;45.00;32.30;;;;;;;5.87;100.00;102473.75;5038250;28;20459;-51
2023/04/10 01:05:01;;;;;;;37.30;33.17;;;;;;;5.91;100.00;102469.88;5037631;28;20424;-45
2023/04/10 01:07:39;;;;;;;42.00;31.87;;;;;;;5.91;100.00;102467.22;5038015;28;20502;-49
2023/04/10 01:10:17;;;;;;;46.50;33.00;;;;;;;5.92;100.00;102471.56;5038074;28;20534;-52
2023/04/10 01:12:56;;;;;;;39.80;32.53;;;;;;;5.95;100.00;102470.47;5038239;28;20420;-43
2023/04/10 01:15:28;;;;;;;45.07;33.43;;;;;;;5.97;100.00;102471.19;5038076;28;20436;-45
2023/04/10 01:18:04;;;;;;;42.10;33.77;;;;;;;5.98;100.00;102468.41;5038413;28;20489;-49
2023/04/10 01:20:34;;;;;;;45.90;34.43;;;;;;;6.01;100.00;102460.22;5019154;28;20432;-48
2023/04/10 01:23:32;;;;;;;40.80;32.40;;;;;;;6.11;100.00;102462.97;5018828;28;20452;-47
2023/04/10 01:26:03;;;;;;;41.70;33.83;;;;;;;6.06;100.00;102465.97;5018844;28;20842;-47
2023/04/10 01:28:56;;;;;;;39.53;32.20;;;;;;;6.08;100.00;102471.16;5021869;28;20495;-45
2023/04/10 01:31:30;;;;;;;47.63;36.50;;;;;;;6.10;100.00;102466.56;5035299;28;20477;-56
2023/04/10 01:34:02;;;;;;;41.20;33.70;;;;;;;6.11;100.00;102458.50;5038388;28;20420;-45
2023/04/10 01:36:48;;;;;;;44.23;34.50;;;;;;;6.12;100.00;102460.16;5037961;28;20479;-47
2023/04/10 01:39:19;;;;;;;45.50;33.17;;;;;;;6.14;100.00;102452.13;5037121;28;20540;-51
2023/04/10 01:41:49;;;;;;;41.07;34.97;;;;;;;6.17;100.00;102451.00;5037597;28;20451;-50
2023/04/10 01:44:21;;;;;;;44.50;36.53;;;;;;;6.19;100.00;102441.97;5037362;28;20446;-46
2023/04/10 01:46:50;;;;;;;43.53;33.90;;;;;;;6.20;100.00;102446.31;5038256;28;20458;-49
2023/04/10 01:49:19;;;;;;;47.03;34.10;;;;;;;6.24;100.00;102438.97;5034700;28;20499;-44
2023/04/10 01:51:47;;;;;;;44.73;35.07;;;;;;;6.26;100.00;102434.34;5037900;28;20424;-51
2023/04/10 01:54:16;;;;;;;46.27;35.10;;;;;;;6.27;100.00;102430.75;5037675;28;20463;-50
2023/04/10 01:56:44;;;;;;;45.40;35.60;;;;;;;6.30;100.00;102427.84;5037752;28;20479;-46
2023/04/10 01:59:12;;;;;;;45.33;34.00;;;;;;;6.32;100.00;102424.09;5037372;28;20963;-53
2023/04/10 02:01:41;;;;;;;42.10;36.77;;;;;;;6.34;100.00;102427.44;5037550;28;20777;-52
2023/04/10 02:04:09;;;;;;;45.10;36.13;;;;;;;6.38;100.00;102420.09;5037927;28;20516;-50
2023/04/10 02:06:43;;;;;;;43.87;36.20;;;;;;;6.37;100.00;102410.44;5038168;28;20452;-52
2023/04/10 02:09:18;;;;;;;43.27;34.40;;;;;;;6.39;100.00;102416.47;5036335;28;20480;-51
2023/04/10 02:11:51;;;;;;;46.20;34.87;;;;;;;6.42;100.00;102413.56;5036641;28;20434;-50
2023/04/10 02:14:21;;;;;;;48.23;36.70;;;;;;;6.41;100.00;102402.13;5036020;28;20468;-47
2023/04/10 02:16:55;;;;;;;41.80;35.70;;;;;;;6.42;100.00;102408.28;5036239;28;20463;-48
2023/04/10 02:19:25;;;;;;;43.70;35.27;;;;;;;6.38;100.00;102407.69;5035776;28;20457;-46
2023/04/10 02:21:53;;;;;;;43.90;36.73;;;;;;;6.41;100.00;102404.78;5036223;28;20432;-48
2023/04/10 02:24:21;;;;;;;41.87;37.33;;;;;;;6.39;100.00;102401.41;5036197;28;21394;-47
2023/04/10 02:26:50;;;;;;;44.80;35.70;;;;;;;6.41;100.00;102390.69;5035867;28;20445;-44
2023/04/10 02:29:19;;;;;;;47.53;37.50;;;;;;;6.40;100.00;102389.00;5035295;28;20472;-51
2023/04/10 02:31:47;;;;;;;45.43;36.37;;;;;;;6.42;100.00;102385.25;5035503;28;20432;-48
2023/04/10 02:34:16;;;;;;;45.10;37.37;;;;;;;6.38;100.00;102388.28;5036158;28;20433;-44
2023/04/10 02:36:43;;;;;;;44.33;37.00;;;;;;;6.34;100.00;102376.25;5035285;28;20845;-52
2023/04/10 02:39:11;;;;;;;40.03;35.63;;;;;;;6.27;100.00;102378.63;5035014;28;20456;-50
2023/04/10 02:41:39;;;;;;;48.30;36.83;;;;;;;6.29;100.00;102362.56;5035733;28;20424;-45
2023/04/10 02:44:06;;;;;;;44.17;35.43;;;;;;;6.29;100.00;102367.88;5036430;28;20424;-47
2023/04/10 02:46:34;;;;;;;40.20;35.27;;;;;;;6.27;100.00;102359.22;5036579;28;20453;-47
2023/04/10 02:49:03;;;;;;;42.70;35.97;;;;;;;6.24;100.00;102348.88;5033904;28;20533;-51
2023/04/10 02:51:35;;;;;;;51.40;34.87;;;;;;;6.08;100.00;102355.47;5037196;28;20432;-49
2023/04/10 02:54:03;;;;;;;47.20;37.00;;;;;;;6.00;100.00;102347.31;5036811;28;20439;-46
2023/04/10 02:56:33;;;;;;;39.23;34.10;;;;;;;5.98;100.00;102345.75;5038595;28;20455;-46
2023/04/10 02:59:01;;;;;;;43.27;36.23;;;;;;;5.92;100.00;102341.81;5040576;28;20518;-49
2023/04/10 03:01:29;;;;;;;38.10;33.20;;;;;;;5.88;100.00;102337.75;5040415;28;20436;-49
2023/04/10 03:03:57;;;;;;;50.00;37.10;;;;;;;5.85;100.00;102332.72;5040908;28;20435;-46
2023/04/10 03:06:26;;;;;;;48.60;38.50;;;;;;;5.81;100.00;102328.59;5040753;28;20492;-47
2023/04/10 03:08:55;;;;;;;42.30;35.27;;;;;;;5.81;100.00;102328.59;5039785;28;20460;-44
2023/04/10 03:11:23;;;;;;;45.97;34.63;;;;;;;5.77;100.00;102328.97;5041003;28;20443;-50
2023/04/10 03:13:50;;;;;;;44.47;37.50;;;;;;;5.76;100.00;102322.84;5040109;28;20465;-49
2023/04/10 03:16:19;;;;;;;51.10;37.77;;;;;;;5.75;100.00;102320.31;5039281;28;20521;-50
2023/04/10 03:18:47;;;;;;;52.00;36.83;;;;;;;5.74;100.00;102329.22;5039305;28;20464;-50
2023/04/10 03:21:15;;;;;;;47.03;37.57;;;;;;;5.73;100.00;102323.13;5039936;28;20445;-52
2023/04/10 03:23:42;;;;;;;50.17;36.63;;;;;;;5.73;100.00;102327.56;5040273;28;20436;-45
2023/04/10 03:26:11;;;;;;;45.63;35.93;;;;;;;5.72;100.00;102320.56;5039553;28;20452;-46
2023/04/10 03:28:40;;;;;;;43.47;34.70;;;;;;;5.71;100.00;102326.81;5039452;28;20896;-52
2023/04/10 03:31:08;;;;;;;47.60;37.17;;;;;;;5.70;100.00;102327.81;5039429;28;20490;-51
2023/04/10 03:33:36;;;;;;;47.60;37.03;;;;;;;5.68;100.00;102322.63;5039920;28;20516;-46
2023/04/10 03:36:04;;;;;;;40.80;34.00;;;;;;;5.67;100.00;102323.63;5040250;28;20480;-47
2023/04/10 03:38:32;;;;;;;46.33;36.20;;;;;;;5.64;100.00;102323.88;5039084;28;20460;-52
2023/04/10 03:41:00;;;;;;;39.97;34.43;;;;;;;5.64;100.00;102320.38;5039637;28;20435;-50
2023/04/10 03:43:29;;;;;;;43.33;35.17;;;;;;;5.61;100.00;102326.75;5038846;28;20440;-52
2023/04/10 03:45:57;;;;;;;42.60;34.87;;;;;;;5.57;100.00;102315.59;5040046;28;21043;-45
2023/04/10 03:48:26;;;;;;;40.50;33.97;;;;;;;5.55;100.00;102314.84;5036436;28;20460;-50
2023/04/10 03:50:54;;;;;;;41.73;34.93;;;;;;;5.54;100.00;102317.63;5039156;28;20506;-48
2023/04/10 03:53:22;;;;;;;45.03;35.17;;;;;;;5.50;100.00;102316.19;5039176;28;20464;-53
2023/04/10 03:55:51;;;;;;;42.83;37.10;;;;;;;5.46;100.00;102315.63;5038967;28;20467;-50
2023/04/10 03:58:19;;;;;;;40.57;36.00;;;;;;;5.45;100.00;102315.75;5038431;28;20486;-46
2023/04/10 04:00:48;;;;;;;47.03;37.50;;;;;;;5.43;100.00;102305.31;5039679;28;20501;-47
2023/04/10 04:03:16;;;;;;;46.40;35.67;;;;;;;5.42;100.00;102300.13;5038661;28;20535;-45
2023/04/10 04:05:44;;;;;;;44.20;38.27;;;;;;;5.40;100.00;102300.25;5038466;28;20452;-45
2023/04/10 04:08:12;;;;;;;43.03;35.10;;;;;;;5.39;100.00;102300.38;5037592;28;20464;-50
2023/04/10 04:10:40;;;;;;;42.63;35.53;;;;;;;5.38;100.00;102298.69;5039080;28;20472;-50
2023/04/10 04:13:08;;;;;;;45.97;36.53;;;;;;;5.36;100.00;102292.69;5038318;28;20436;-47
2023/04/10 04:15:35;;;;;;;45.70;36.50;;;;;;;5.35;100.00;102298.94;5038881;28;20829;-53
2023/04/10 04:18:05;;;;;;;43.37;35.60;;;;;;;5.35;100.00;102296.28;5037782;28;20432;-46
2023/04/10 04:20:32;;;;;;;38.80;33.43;;;;;;;5.34;100.00;102294.63;5038157;28;20443;-51
2023/04/10 04:23:00;;;;;;;38.43;34.53;;;;;;;5.33;100.00;102293.78;5037813;28;20440;-51
2023/04/10 04:25:28;;;;;;;37.27;33.33;;;;;;;5.34;100.00;102295.47;5037718;28;20446;-48
2023/04/10 04:27:56;;;;;;;40.13;32.70;;;;;;;5.33;100.00;102295.56;5038084;28;20438;-47
2023/04/10 04:30:24;;;;;;;43.30;34.70;;;;;;;5.36;100.00;102303.25;5037685;28;20478;-48
2023/04/10 04:32:51;;;;;;;42.00;35.40;;;;;;;5.37;100.00;102289.09;5037668;28;20432;-50
2023/04/10 04:35:21;;;;;;;52.70;32.57;;;;;;;5.40;100.00;102299.41;5037734;28;20431;-48
2023/04/10 04:37:49;;;;;;;44.60;36.07;;;;;;;5.44;100.00;102292.88;5037474;28;20440;-50
2023/04/10 04:40:17;;;;;;;38.60;33.57;;;;;;;5.49;100.00;102290.72;5036430;28;20472;-51
2023/04/10 04:42:44;;;;;;;38.93;34.50;;;;;;;5.50;100.00;102293.22;5036512;28;20432;-46
2023/04/10 04:45:13;;;;;;;41.97;36.67;;;;;;;5.56;100.00;102287.44;5036528;28;20439;-51
2023/04/10 04:47:40;;;;;;;38.60;33.07;;;;;;;5.64;100.00;102285.97;5036877;28;20459;-48
2023/04/10 04:50:09;;;;;;;40.60;35.73;;;;;;;5.67;100.00;102291.84;5035855;28;20476;-47
2023/04/10 04:52:38;;;;;;;42.90;35.87;;;;;;;5.76;100.00;102285.81;5036082;28;20493;-52
2023/04/10 04:55:07;;;;;;;45.73;33.60;;;;;;;5.85;100.00;102285.06;5036427;28;20467;-50
2023/04/10 04:57:35;;;;;;;39.53;34.90;;;;;;;5.96;100.00;102286.78;5036297;28;20475;-47
2023/04/10 05:00:03;;;;;;;36.90;33.27;;;;;;;6.08;100.00;102275.16;5035976;28;20526;-47
2023/04/10 05:02:30;;;;;;;40.27;33.80;;;;;;;6.21;100.00;102273.16;5035753;28;20951;-49
2023/04/10 05:04:59;;;;;;;40.97;33.37;;;;;;;6.41;100.00;102272.28;5035758;28;20972;-50
2023/04/10 05:07:27;;;;;;;34.90;30.67;;;;;;;6.57;100.00;102267.31;5035805;28;20460;-48
2023/04/10 05:09:56;;;;;;;37.40;33.50;;;;;;;6.74;100.00;102267.66;5036009;28;20470;-52
2023/04/10 05:12:23;;;;;;;41.40;31.57;;;;;;;6.87;100.00;102253.19;5036257;28;20772;-47
2023/04/10 05:14:51;;;;;;;37.23;33.27;;;;;;;7.10;100.00;102246.69;5038702;28;20434;-45
2023/04/10 05:17:19;;;;;;;36.97;33.00;;;;;;;7.59;100.00;102244.88;5038527;28;20468;-48
2023/04/10 05:19:46;;;;;;;36.33;32.47;;;;;;;8.24;100.00;102250.19;5034559;28;20460;-48
2023/04/10 05:22:14;;;;;;;35.60;31.97;;;;;;;8.87;100.00;102245.06;5039078;28;20435;-48
2023/04/10 05:24:45;;;;;;;34.73;31.27;;;;;;;9.33;100.00;102239.56;5038713;28;20531;-47
2023/04/10 05:27:14;;;;;;;36.30;32.67;;;;;;;9.81;100.00;102240.97;5039364;28;20456;-46
2023/04/10 05:29:41;;;;;;;34.63;31.43;;;;;;;10.01;100.00;102237.09;5038855;28;20519;-44
2023/04/10 05:32:09;;;;;;;35.93;32.53;;;;;;;10.03;100.00;102225.28;5038189;28;20502;-49
2023/04/10 05:34:37;;;;;;;36.00;32.27;;;;;;;10.47;100.00;102219.91;5040093;28;20437;-48
2023/04/10 05:37:05;;;;;;;34.27;30.90;;;;;;;10.83;100.00;102223.22;5039824;28;20474;-48
2023/04/10 05:39:32;;;;;;;35.10;31.90;;;;;;;11.26;100.00;102212.28;5039639;28;20456;-50
2023/04/10 05:42:00;;;;;;;34.63;31.13;;;;;;;11.52;100.00;102210.31;5040016;28;20435;-47
2023/04/10 05:44:30;;;;;;;36.20;32.67;;;;;;;12.05;100.00;102209.78;5040757;28;20432;-49
2023/04/10 05:46:58;;;;;;;36.77;33.17;;;;;;;12.48;100.00;102202.28;5039473;28;20857;-45
2023/04/10 05:49:26;;;;;;;33.23;30.27;;;;;;;12.88;100.00;102195.88;5039717;28;20464;-46
2023/04/10 05:51:54;;;;;;;31.63;28.60;;;;;;;12.99;100.00;102201.66;5039439;28;20471;-45
2023/04/10 05:54:21;;;;;;;31.33;28.30;;;;;;;13.31;100.00;102192.63;5039990;28;20436;-47
2023/04/10 05:56:49;;;;;;;29.80;27.20;;;;;;;13.43;100.00;102182.31;5039428;28;20494;-51
2023/04/10 05:59:17;;;;;;;30.93;27.90;;;;;;;13.29;100.00;102186.59;5039045;28;20475;-47
2023/04/10 06:01:46;;;;;;;28.60;25.90;;;;;;;13.37;100.00;102177.69;5038305;28;20429;-50
2023/04/10 06:04:14;;;;;;;30.27;27.13;;;;;;;13.51;100.00;102180.41;5039251;28;20848;-45
2023/04/10 06:06:42;;;;;;;29.20;26.23;;;;;;;13.32;100.00;102170.16;5039503;28;20452;-47
2023/04/10 06:09:10;;;;;;;31.30;28.00;;;;;;;13.26;100.00;102165.56;5039851;28;20460;-46
2023/04/10 06:11:37;;;;;;;30.37;27.67;;;;;;;12.90;100.00;102157.25;5039520;28;20468;-52
2023/04/10 06:14:05;;;;;;;29.70;27.00;;;;;;;12.73;100.00;102156.50;5039310;28;20511;-46
2023/04/10 06:16:33;;;;;;;29.07;26.33;;;;;;;12.64;100.00;102152.19;5039244;28;20483;-44
2023/04/10 06:19:03;;;;;;;29.43;26.67;;;;;;;12.52;100.00;102148.25;5038543;28;20470;-47
2023/04/10 06:21:31;;;;;;;29.57;26.80;;;;;;;12.61;100.00;102147.19;5040151;28;20809;-46
2023/04/10 06:23:58;;;;;;;30.70;27.63;;;;;;;12.35;100.00;102146.66;5039559;28;20941;-47
2023/04/10 06:26:26;;;;;;;30.47;27.63;;;;;;;12.32;100.00;102144.34;5039127;28;20459;-53
2023/04/10 06:28:54;;;;;;;31.47;28.07;;;;;;;12.34;100.00;102144.97;5039178;28;20459;-45
2023/04/10 06:31:22;;;;;;;29.50;26.70;;;;;;;12.26;100.00;102147.69;5040511;28;20555;-45
2023/04/10 06:33:50;;;;;;;26.77;24.20;;;;;;;12.17;100.00;102136.22;5043664;28;20485;-49
2023/04/10 06:36:19;;;;;;;31.97;28.73;;;;;;;12.21;100.00;102139.38;5043488;28;20463;-51
2023/04/10 06:38:47;;;;;;;30.60;27.60;;;;;;;12.15;100.00;102150.75;5042397;28;20468;-47
2023/04/10 06:41:15;;;;;;;29.67;26.57;;;;;;;12.30;100.00;102130.31;5043517;28;20459;-52
2023/04/10 06:43:42;;;;;;;29.43;26.37;;;;;;;12.50;100.00;102139.56;5042577;28;20837;-48
2023/04/10 06:46:10;;;;;;;28.00;25.17;;;;;;;12.60;100.00;102137.50;5041649;28;20543;-50
2023/04/10 06:48:38;;;;;;;28.43;25.67;;;;;;;12.65;100.00;102131.63;5036125;28;20464;-48
2023/04/10 06:51:07;;;;;;;29.63;25.53;;;;;;;12.63;100.00;102136.31;5039977;28;20556;-45
2023/04/10 06:53:36;;;;;;;28.97;26.17;;;;;;;12.81;100.00;102134.22;5038904;28;20470;-53
2023/04/10 06:56:04;;;;;;;27.87;24.07;;;;;;;13.01;100.00;102135.41;5040250;28;20495;-46
2023/04/10 06:58:31;;;;;;;26.20;23.87;;;;;;;13.31;100.00;102133.69;5038496;28;20460;-47
2023/04/10 07:01:03;;;;;;;29.03;26.33;;;;;;;13.53;100.00;102118.59;5038656;28;20420;-49
2023/04/10 07:03:31;;;;;;;28.80;26.10;;;;;;;13.60;97.92;102135.59;5037550;28;20434;-49
2023/04/10 07:06:00;;;;;;;28.57;25.73;;;;;;;13.89;97.22;102126.75;5038479;28;20470;-54
2023/04/10 07:08:28;;;;;;;27.87;25.30;;;;;;;14.20;97.67;102136.25;5037617;28;20460;-49
2023/04/10 07:10:57;;;;;;;30.17;27.23;;;;;;;14.38;93.46;102144.78;5036345;28;20436;-46
2023/04/10 07:13:25;;;;;;;27.60;25.07;;;;;;;14.59;87.10;102138.63;5036549;28;20440;-48
2023/04/10 07:15:53;;;;;;;30.67;27.90;;;;;;;14.39;83.33;102137.56;5037137;28;20459;-52
2023/04/10 07:18:21;;;;;;;27.37;25.03;;;;;;;14.66;90.33;102130.66;5037063;28;20459;-44
2023/04/10 07:20:48;;;;;;;29.00;26.33;;;;;;;14.76;88.99;102133.84;5037359;28;20838;-44
2023/04/10 07:23:16;;;;;;;29.23;26.57;;;;;;;14.67;84.59;102135.81;5037206;28;20467;-49
2023/04/10 07:25:44;;;;;;;29.93;27.20;;;;;;;14.70;84.09;102129.25;5039217;28;20459;-47
2023/04/10 07:28:13;;;;;;;29.47;26.97;;;;;;;14.82;86.88;102127.72;5038808;28;20776;-45
2023/04/10 07:30:41;;;;;;;31.47;28.57;;;;;;;14.58;85.34;102130.75;5038887;28;20435;-46
2023/04/10 07:33:08;;;;;;;28.83;26.10;;;;;;;14.61;84.63;102125.00;5033321;28;20472;-47
2023/04/10 07:35:36;;;;;;;29.83;26.97;;;;;;;14.69;89.16;102119.53;5032456;28;20428;-49
2023/04/10 07:38:04;;;;;;;29.70;27.10;;;;;;;14.67;88.02;102122.41;5031997;28;20432;-47
2023/04/10 07:40:32;;;;;;;27.60;25.00;;;;;;;14.35;83.37;102117.50;5031685;28;20432;-46
2023/04/10 07:42:59;;;;;;;28.10;25.33;;;;;;;14.15;84.26;102116.38;5030462;28;20451;-46
2023/04/10 07:45:28;;;;;;;27.77;25.13;;;;;;;14.01;87.05;102117.22;5032437;28;20436;-51
2023/04/10 07:47:58;;;;;;;32.17;28.97;;;;;;;14.02;87.29;102108.16;5032962;28;20443;-49
2023/04/10 07:50:26;;;;;;;28.77;26.33;;;;;;;14.24;88.28;102107.22;5029614;28;21046;-45
2023/04/10 07:52:54;;;;;;;27.83;25.13;;;;;;;14.26;87.33;102110.53;5032566;28;20500;-47
2023/04/10 07:55:22;;;;;;;28.27;25.47;;;;;;;14.59;85.52;102101.06;5033272;28;20432;-47
2023/04/10 07:57:51;;;;;;;29.43;26.63;;;;;;;14.91;87.33;102092.50;5033028;28;20523;-47
2023/04/10 08:00:19;;;;;;;27.33;24.63;;;;;;;15.22;79.01;102092.16;5032348;28;20551;-45
2023/04/10 08:02:48;;;;;;;27.50;24.90;;;;;;;15.28;75.89;102087.84;5032508;28;20798;-49
2023/04/10 08:05:15;;;;;;;28.00;25.27;;;;;;;15.51;74.62;102083.09;5033618;28;20440;-47
2023/04/10 08:07:44;;;;;;;27.90;25.20;;;;;;;15.61;75.67;102086.28;5032711;28;20456;-55
2023/04/10 08:10:12;;;;;;;30.10;27.00;;;;;;;15.77;75.97;102072.50;5031939;28;21064;-54
2023/04/10 08:12:40;;;;;;;26.80;24.20;;;;;;;15.60;73.43;102087.28;5031492;28;20471;-53
2023/04/10 08:15:08;;;;;;;27.00;24.53;;;;;;;15.39;74.34;102082.78;5032524;28;20440;-50
2023/04/10 08:17:35;;;;;;;26.30;23.70;;;;;;;15.17;72.46;102078.44;5032383;28;20460;-47
2023/04/10 08:20:06;;;;;;;32.60;29.20;;;;;;;15.11;76.24;102081.94;5031702;28;20472;-50
2023/04/10 08:22:33;;;;;;;26.37;23.60;;;;;;;15.00;73.92;102073.56;5031521;28;21169;-48
2023/04/10 08:25:01;;;;;;;24.93;22.47;;;;;;;14.90;75.03;102071.22;5032219;28;20442;-49
2023/04/10 08:27:29;;;;;;;22.80;20.47;;;;;;;14.82;76.15;102072.16;5032083;28;20467;-50
2023/04/10 08:29:57;;;;;;;24.83;22.40;;;;;;;14.96;76.20;102067.75;5031528;28;20470;-48
2023/04/10 08:32:26;;;;;;;24.60;22.00;;;;;;;15.03;75.55;102062.41;5031363;28;20476;-47
2023/04/10 08:34:54;;;;;;;26.23;23.43;;;;;;;15.18;77.23;102052.41;5031970;28;20440;-50
2023/04/10 08:37:23;;;;;;;24.27;22.03;;;;;;;15.38;76.25;102053.41;5031845;28;20444;-49
2023/04/10 08:39:50;;;;;;;23.40;21.03;;;;;;;15.50;74.19;102043.81;5031111;28;20476;-49
2023/04/10 08:42:18;;;;;;;32.87;21.27;;;;;;;15.56;71.06;102039.50;5032084;28;20427;-47
2023/04/10 08:44:48;;;;;;;24.47;22.07;;;;;;;15.40;69.54;102044.13;5032052;28;20428;-50
2023/04/10 08:47:20;;;;;;;25.03;22.43;;;;;;;15.44;70.62;102044.56;5032025;28;20444;-49
2023/04/10 08:49:53;;;;;;;23.70;21.10;;;;;;;15.51;69.23;102045.47;5028071;28;20495;-48
2023/04/10 08:52:24;;;;;;;21.87;19.87;;;;;;;15.45;70.87;102040.84;5031095;28;20463;-50
2023/04/10 08:54:54;;;;;;;22.10;19.90;;;;;;;15.40;71.26;102028.00;5031554;28;20458;-46
2023/04/10 08:57:25;;;;;;;21.83;19.63;;;;;;;15.58;71.90;102027.50;5031455;28;20491;-46
2023/04/10 08:59:53;;;;;;;25.27;22.20;;;;;;;15.68;68.40;102032.53;5030711;28;20495;-48
2023/04/10 09:02:22;;;;;;;23.90;21.50;;;;;;;15.86;70.01;102022.88;5030745;28;20481;-52
2023/04/10 09:04:53;;;;;;;21.70;19.77;;;;;;;15.89;66.69;102022.50;5031230;28;20999;-50
2023/04/10 09:07:22;;;;;;;23.17;20.77;;;;;;;15.92;66.22;102002.41;5031710;28;20479;-47
2023/04/10 09:09:50;;;;;;;23.67;21.27;;;;;;;15.98;66.39;102002.44;5030947;28;20460;-46
2023/04/10 09:12:18;;;;;;;22.90;20.50;;;;;;;16.13;66.92;102009.56;5030826;28;20518;-46
2023/04/10 09:14:48;;;;;;;20.90;19.10;;;;;;;16.14;63.64;102000.44;5031325;28;20940;-48
2023/04/10 09:17:18;;;;;;;19.63;17.67;;;;;;;16.27;63.80;101998.63;5031016;28;20460;-48
2023/04/10 09:19:47;;;;;;;21.90;20.00;;;;;;;16.41;61.79;101994.09;5028265;28;20490;-50
2023/04/10 09:22:16;;;;;;;20.43;18.53;;;;;;;16.55;61.38;101987.72;5030815;28;20439;-46
2023/04/10 09:24:47;;;;;;;20.80;18.80;;;;;;;16.73;61.50;101987.09;5031194;28;20478;-46
2023/04/10 09:27:30;;;;;;;19.43;17.40;;;;;;;16.89;58.64;101973.22;5031198;28;20444;-51
2023/04/10 09:29:58;;;;;;;19.80;18.00;;;;;;;16.94;58.80;101974.25;5030359;28;20456;-48
2023/04/10 09:32:37;;;;;;;19.63;17.73;;;;;;;17.04;56.68;101973.84;5030529;28;20424;-48
2023/04/10 09:35:06;;;;;;;18.77;17.07;;;;;;;17.14;56.12;101958.06;5030892;28;20510;-44
2023/04/10 09:37:34;;;;;;;19.90;18.00;;;;;;;17.22;57.57;101965.94;5031058;28;20603;-46
2023/04/10 09:40:04;;;;;;;20.40;18.37;;;;;;;17.44;57.49;101955.72;5030121;28;20468;-50
2023/04/10 09:42:33;;;;;;;18.93;17.20;;;;;;;17.36;54.39;101937.06;5030231;28;20436;-47
2023/04/10 09:45:01;;;;;;;18.80;16.90;;;;;;;17.35;53.94;101943.50;5030818;28;20436;-46
2023/04/10 09:47:29;;;;;;;17.83;16.33;;;;;;;17.61;54.05;101941.56;5030957;28;20451;-49
2023/04/10 09:49:59;;;;;;;16.20;14.70;;;;;;;17.57;51.65;101934.09;5027782;28;20510;-52
2023/04/10 09:52:29;;;;;;;18.13;16.33;;;;;;;17.62;53.22;101927.03;5029808;28;20522;-48
2023/04/10 09:54:58;;;;;;;16.23;14.70;;;;;;;17.58;50.81;101923.13;5030767;28;20527;-45
2023/04/10 09:57:30;;;;;;;17.93;16.10;;;;;;;17.68;51.41;101923.47;5030837;28;20474;-47
2023/04/10 10:00:00;;;;;;;16.73;15.30;;;;;;;17.84;51.16;101911.38;5029865;28;20466;-49
2023/04/10 10:02:30;;;;;;;16.80;15.03;;;;;;;17.92;49.67;101904.91;5030110;28;20427;-49
2023/04/10 10:05:00;;;;;;;17.70;16.03;;;;;;;18.11;50.11;101914.72;5030088;28;20917;-46
2023/04/10 10:07:29;;;;;;;17.20;15.70;;;;;;;18.37;49.28;101900.22;5030300;28;20841;-50
2023/04/10 10:09:58;;;;;;;14.60;13.20;;;;;;;18.35;48.12;101896.91;5029821;28;20470;-49
2023/04/10 10:12:34;;;;;;;13.20;12.10;;;;;;;18.45;46.49;101894.56;5030202;28;20438;-51
2023/04/10 10:15:09;;;;;;;14.07;12.77;;;;;;;18.44;47.37;101882.91;5030448;28;20458;-51
2023/04/10 10:17:43;;;;;;;13.90;12.77;;;;;;;18.70;45.58;101880.00;5030189;28;20461;-49
2023/04/10 10:20:13;;;;;;;16.10;14.20;;;;;;;18.53;44.87;101875.38;5027907;28;20886;-46
2023/04/10 10:22:42;;;;;;;16.93;14.97;;;;;;;18.45;45.92;101870.25;5029818;28;20428;-55
2023/04/10 10:25:10;;;;;;;14.27;12.97;;;;;;;18.73;47.32;101859.81;5030536;28;20431;-52
2023/04/10 10:27:41;;;;;;;14.57;13.17;;;;;;;18.72;45.96;101860.88;5030637;28;20448;-54
2023/04/10 10:30:11;;;;;;;13.87;12.57;;;;;;;18.75;45.50;101847.75;5029763;28;20836;-50
2023/04/10 10:32:57;;;;;;;14.83;13.43;;;;;;;18.72;45.47;101845.50;5029027;28;20419;-52
2023/04/10 10:35:26;;;;;;;14.63;13.33;;;;;;;18.89;46.03;101826.81;5028139;28;20424;-49
2023/04/10 10:38:00;;;;;;;14.67;13.37;;;;;;;18.87;44.53;101836.19;5030346;28;20416;-50
2023/04/10 10:40:32;;;;;;;15.57;14.07;;;;;;;18.73;43.99;101819.28;5026149;28;20450;-52
2023/04/10 10:43:08;;;;;;;15.90;14.30;;;;;;;18.84;44.99;101818.56;5029421;28;20925;-46
2023/04/10 10:45:44;;;;;;;15.93;14.63;;;;;;;18.95;45.19;101811.56;5031237;28;20489;-50
2023/04/10 10:48:11;;;;;;;15.07;13.93;;;;;;;18.89;45.46;101810.59;5029335;28;20423;-52
2023/04/10 10:50:57;;;;;;;14.20;13.00;;;;;;;18.89;44.13;101805.19;5031330;28;20442;-46
2023/04/10 10:53:46;;;;;;;14.73;13.43;;;;;;;18.94;43.34;101810.72;5030997;28;20529;-50
2023/04/10 10:56:36;;;;;;;14.67;13.57;;;;;;;18.91;43.84;101811.16;5025135;28;20460;-50
2023/04/10 10:59:05;;;;;;;13.57;12.37;;;;;;;18.82;42.00;101796.31;5030741;28;20466;-51
2023/04/10 11:01:32;;;;;;;14.13;12.90;;;;;;;18.94;42.15;101788.25;5030598;28;20435;-50
2023/04/10 11:04:01;;;;;;;13.60;12.50;;;;;;;18.72;41.86;101783.34;5031190;28;20535;-54
2023/04/10 11:06:51;;;;;;;13.90;12.50;;;;;;;19.22;42.15;101775.84;5031013;28;20455;-50
2023/04/10 11:09:46;;;;;;;14.90;13.70;;;;;;;18.94;40.96;101772.06;5025864;28;20468;-47
2023/04/10 11:12:15;;;;;;;12.73;11.53;;;;;;;19.00;40.96;101765.75;5031073;28;20439;-47
2023/04/10 11:14:46;;;;;;;12.50;11.40;;;;;;;18.78;40.70;101755.41;5031213;28;20472;-48
2023/04/10 11:17:33;;;;;;;12.30;11.30;;;;;;;18.83;41.05;101751.19;5032094;28;20452;-50
2023/04/10 11:20:02;;;;;;;12.90;11.90;;;;;;;18.61;40.47;101753.53;5033915;28;20486;-51